createdAt,value
2023-08-15T00:00:23.911Z,10.13
2023-08-15T00:02:52.289Z,8.10
2023-08-15T00:05:22.000Z,8.48
2023-08-15T00:08:05.703Z,9.90
2023-08-15T00:10:34.234Z,8.05
2023-08-15T00:13:04.117Z,10.20
2023-08-15T00:15:32.481Z,7.85
2023-08-15T00:18:00.794Z,9.18
2023-08-15T00:20:30.551Z,7.97
2023-08-15T00:22:58.799Z,5.63
2023-08-15T00:25:27.183Z,5.97
2023-08-15T00:27:55.420Z,5.97
2023-08-15T00:30:23.691Z,10.70
2023-08-15T00:32:51.978Z,5.35
2023-08-15T00:35:20.374Z,6.82
2023-08-15T00:37:49.940Z,5.68
2023-08-15T00:40:18.866Z,8.55
2023-08-15T00:42:47.140Z,5.13
2023-08-15T00:45:17.680Z,7.05
2023-08-15T00:47:46.352Z,8.93
2023-08-15T00:50:14.835Z,6.63
2023-08-15T00:52:44.276Z,6.40
2023-08-15T00:55:14.168Z,7.32
2023-08-15T00:57:42.550Z,9.77
2023-08-15T01:00:12.746Z,8.70
2023-08-15T01:02:41.184Z,5.97
2023-08-15T01:05:09.819Z,7.05
2023-08-15T01:07:38.279Z,7.45
2023-08-15T01:10:07.960Z,6.90
2023-08-15T01:12:43.626Z,9.15
2023-08-15T01:15:17.763Z,5.75
2023-08-15T01:17:53.904Z,8.95
2023-08-15T01:20:28.184Z,5.60
2023-08-15T01:23:00.162Z,9.60
2023-08-15T01:25:29.863Z,10.93
2023-08-15T01:27:58.026Z,11.65
2023-08-15T01:30:26.353Z,8.18
2023-08-15T01:33:00.416Z,8.32
2023-08-15T01:35:35.793Z,6.07
2023-08-15T01:38:12.072Z,10.93
2023-08-15T01:40:43.790Z,6.75
2023-08-15T01:43:14.262Z,10.38
2023-08-15T01:45:42.682Z,7.10
2023-08-15T01:48:10.946Z,7.13
2023-08-15T01:50:39.225Z,10.23
2023-08-15T01:53:07.493Z,8.98
2023-08-15T01:55:35.861Z,10.85
2023-08-15T01:58:05.713Z,9.80
2023-08-15T02:00:34.033Z,10.38
2023-08-15T02:03:03.102Z,7.40
2023-08-15T02:05:32.160Z,6.47
2023-08-15T02:08:01.826Z,6.55
2023-08-15T02:10:30.184Z,11.70
2023-08-15T02:12:58.395Z,9.93
2023-08-15T02:15:28.252Z,9.32
2023-08-15T02:17:58.298Z,7.80
2023-08-15T02:20:26.775Z,8.15
2023-08-15T02:22:55.781Z,11.93
2023-08-15T02:25:25.884Z,8.80
2023-08-15T02:27:54.196Z,9.43
2023-08-15T02:30:24.181Z,7.45
2023-08-15T02:32:54.493Z,13.48
2023-08-15T02:35:22.764Z,8.02
2023-08-15T02:37:51.064Z,10.90
2023-08-15T02:40:19.413Z,10.90
2023-08-15T02:42:47.724Z,10.85
2023-08-15T02:45:16.040Z,9.45
2023-08-15T02:47:46.021Z,10.82
2023-08-15T02:50:16.557Z,7.68
2023-08-15T02:52:44.997Z,8.30
2023-08-15T02:55:13.257Z,9.60
2023-08-15T02:57:41.569Z,9.35
2023-08-15T03:00:11.776Z,11.27
2023-08-15T03:02:41.121Z,6.63
2023-08-15T03:05:09.645Z,9.75
2023-08-15T03:07:39.309Z,8.63
2023-08-15T03:10:08.154Z,9.95
2023-08-15T03:12:36.483Z,7.05
2023-08-15T03:15:05.167Z,8.50
2023-08-15T03:17:35.030Z,9.00
2023-08-15T03:20:04.211Z,9.32
2023-08-15T03:22:32.634Z,8.00
2023-08-15T03:25:02.195Z,7.68
2023-08-15T03:27:30.544Z,12.88
2023-08-15T03:29:58.756Z,8.93
2023-08-15T03:32:28.248Z,7.40
2023-08-15T03:34:57.272Z,7.63
2023-08-15T03:37:25.619Z,13.68
2023-08-15T03:39:53.825Z,10.07
2023-08-15T03:42:23.440Z,10.43
2023-08-15T03:44:51.685Z,9.85
2023-08-15T03:47:20.188Z,10.25
2023-08-15T03:49:48.587Z,11.70
2023-08-15T03:52:16.843Z,10.82
2023-08-15T03:54:45.133Z,10.82
2023-08-15T03:57:13.452Z,13.63
2023-08-15T03:59:43.123Z,17.25
2023-08-15T04:02:11.778Z,11.73
2023-08-15T04:04:40.109Z,16.80
2023-08-15T04:07:08.379Z,14.50
2023-08-15T04:09:36.790Z,18.45
2023-08-15T04:12:05.605Z,13.15
2023-08-15T04:14:33.850Z,15.90
2023-08-15T04:17:03.571Z,20.40
2023-08-15T04:19:31.860Z,12.38
2023-08-15T04:22:00.167Z,11.30
2023-08-15T04:24:29.558Z,12.10
2023-08-15T04:26:59.065Z,13.82
2023-08-15T04:29:27.379Z,8.43
2023-08-15T04:31:55.732Z,11.98
2023-08-15T04:34:25.298Z,9.40
2023-08-15T04:36:53.820Z,10.43
2023-08-15T04:39:23.440Z,10.77
2023-08-15T04:41:51.903Z,9.55
2023-08-15T04:44:20.173Z,7.80
2023-08-15T04:46:49.691Z,5.93
2023-08-15T04:49:17.912Z,4.85
2023-08-15T04:51:47.604Z,6.85
2023-08-15T04:54:16.229Z,5.60
2023-08-15T04:56:44.498Z,5.40
2023-08-15T04:59:12.697Z,3.35
2023-08-15T05:01:41.028Z,3.35
2023-08-15T05:04:09.264Z,4.85
2023-08-15T05:06:37.542Z,5.13
2023-08-15T05:09:07.320Z,4.45
2023-08-15T05:11:35.679Z,5.15
2023-08-15T05:14:03.923Z,3.33
2023-08-15T05:16:32.264Z,3.55
2023-08-15T05:19:01.644Z,3.10
2023-08-15T05:21:30.013Z,3.33
2023-08-15T05:23:58.256Z,4.85
2023-08-15T05:26:29.430Z,2.22
2023-08-15T05:28:57.698Z,3.83
2023-08-15T05:31:26.127Z,2.50
2023-08-15T05:33:55.841Z,3.85
2023-08-15T05:36:24.199Z,3.45
2023-08-15T05:38:52.483Z,2.97
2023-08-15T05:41:20.769Z,2.50
2023-08-15T05:43:50.408Z,3.00
2023-08-15T05:46:18.763Z,3.92
2023-08-15T05:48:46.996Z,4.55
2023-08-15T05:51:15.278Z,7.18
2023-08-15T05:53:43.592Z,8.63
2023-08-15T05:56:11.892Z,3.95
2023-08-15T05:58:40.152Z,5.32
2023-08-15T06:01:09.895Z,2.60
2023-08-15T06:03:51.919Z,2.85
2023-08-15T06:06:21.092Z,2.42
2023-08-15T06:08:49.661Z,3.55
2023-08-15T06:11:17.950Z,3.45
2023-08-15T06:13:46.255Z,2.28
2023-08-15T06:16:15.954Z,3.35
2023-08-15T06:18:44.291Z,5.07
2023-08-15T06:21:12.728Z,2.45
2023-08-15T06:23:41.071Z,4.95
2023-08-15T06:26:09.472Z,2.60
2023-08-15T06:28:37.988Z,5.88
2023-08-15T06:31:06.286Z,2.90
2023-08-15T06:33:35.921Z,3.88
2023-08-15T06:36:04.394Z,2.15
2023-08-15T06:38:32.627Z,4.32
2023-08-15T06:41:00.946Z,2.60
2023-08-15T06:43:29.188Z,2.03
2023-08-15T06:45:57.552Z,2.55
2023-08-15T06:48:25.894Z,1.95
2023-08-15T06:50:55.640Z,2.25
2023-08-15T06:53:24.132Z,2.33
2023-08-15T06:55:52.488Z,2.97
2023-08-15T06:58:21.944Z,4.90
2023-08-15T07:00:50.568Z,4.55
2023-08-15T07:03:19.218Z,2.10
2023-08-15T07:05:47.946Z,2.33
2023-08-15T07:08:18.691Z,3.17
2023-08-15T07:10:46.972Z,5.50
2023-08-15T07:13:15.192Z,1.63
2023-08-15T07:15:43.516Z,2.03
2023-08-15T07:18:11.763Z,4.60
2023-08-15T07:20:40.390Z,4.15
2023-08-15T07:23:08.729Z,2.17
2023-08-15T07:25:42.662Z,2.13
2023-08-15T07:28:11.240Z,2.03
2023-08-15T07:30:39.589Z,0.98
2023-08-15T07:33:08.394Z,1.73
2023-08-15T07:35:36.725Z,1.60
2023-08-15T07:38:05.262Z,1.13
2023-08-15T07:40:33.570Z,1.50
2023-08-15T07:43:03.168Z,1.65
2023-08-15T07:45:31.595Z,1.25
2023-08-15T07:48:00.279Z,1.00
2023-08-15T07:50:30.195Z,2.65
2023-08-15T07:53:00.073Z,1.85
2023-08-15T07:55:32.906Z,1.75
2023-08-15T07:58:02.981Z,1.02
2023-08-15T08:00:31.333Z,1.13
2023-08-15T08:03:00.813Z,2.05
2023-08-15T08:05:32.765Z,4.10
2023-08-15T08:08:02.626Z,1.77
2023-08-15T08:10:31.158Z,2.20
2023-08-15T08:13:00.746Z,1.25
2023-08-15T08:15:30.668Z,1.95
2023-08-15T08:17:59.059Z,1.38
2023-08-15T08:20:27.610Z,2.30
2023-08-15T08:22:56.020Z,2.15
2023-08-15T08:25:25.662Z,1.55
2023-08-15T08:27:54.243Z,2.22
2023-08-15T08:30:25.905Z,2.22
2023-08-15T08:32:56.476Z,4.05
2023-08-15T08:35:24.733Z,3.13
2023-08-15T08:37:53.101Z,3.55
2023-08-15T08:40:21.434Z,2.10
2023-08-15T08:42:49.837Z,4.88
2023-08-15T08:45:20.348Z,5.47
2023-08-15T08:47:49.027Z,3.47
2023-08-15T08:50:19.359Z,2.88
2023-08-15T08:52:50.374Z,2.55
2023-08-15T08:55:21.411Z,3.50
2023-08-15T08:57:53.226Z,6.22
2023-08-15T09:00:27.400Z,2.50
2023-08-15T09:02:57.515Z,2.95
2023-08-15T09:05:27.763Z,2.50
2023-08-15T09:07:56.822Z,2.25
2023-08-15T09:10:25.164Z,3.30
2023-08-15T09:12:59.752Z,4.47
2023-08-15T09:15:28.407Z,5.43
2023-08-15T09:18:02.138Z,3.17
2023-08-15T09:20:32.001Z,4.90
2023-08-15T09:23:01.737Z,5.45
2023-08-15T09:25:31.485Z,2.33
2023-08-15T09:28:01.578Z,3.28
2023-08-15T09:30:29.944Z,3.88
2023-08-15T09:32:58.347Z,5.13
2023-08-15T09:35:31.448Z,6.82
2023-08-15T09:38:06.397Z,4.13
2023-08-15T09:40:34.864Z,2.88
2023-08-15T09:43:05.449Z,4.35
2023-08-15T09:45:33.803Z,2.20
2023-08-15T09:48:02.551Z,1.92
2023-08-15T09:50:32.019Z,3.05
2023-08-15T09:53:02.949Z,3.67
2023-08-15T09:55:32.525Z,4.97
2023-08-15T09:58:00.879Z,4.15
2023-08-15T10:00:29.901Z,2.63
2023-08-15T10:03:02.569Z,4.40
2023-08-15T10:05:34.474Z,5.38
2023-08-15T10:08:04.933Z,3.30
2023-08-15T10:10:38.078Z,3.97
2023-08-15T10:13:08.897Z,2.78
2023-08-15T10:15:38.444Z,2.03
2023-08-15T10:18:07.977Z,4.30
2023-08-15T10:20:38.063Z,2.95
2023-08-15T10:23:10.642Z,2.30
2023-08-15T10:25:41.384Z,2.58
2023-08-15T10:28:11.411Z,2.30
2023-08-15T10:30:43.424Z,3.58
2023-08-15T10:33:19.238Z,2.17
2023-08-15T10:35:53.016Z,1.50
2023-08-15T10:38:24.498Z,2.80
2023-08-15T10:40:53.927Z,1.63
2023-08-15T10:43:29.038Z,1.88
2023-08-15T10:45:59.804Z,2.08
2023-08-15T10:49:00.204Z,4.47
2023-08-15T10:51:32.313Z,2.30
2023-08-15T10:54:03.208Z,3.78
2023-08-15T10:56:33.436Z,2.33
2023-08-15T10:59:06.288Z,3.95
2023-08-15T11:01:34.775Z,2.40
2023-08-15T11:04:04.420Z,5.30
2023-08-15T11:06:41.891Z,4.72
2023-08-15T11:09:12.173Z,5.18
2023-08-15T11:11:41.244Z,4.88
2023-08-15T11:14:17.445Z,4.80
2023-08-15T11:16:47.300Z,4.15
2023-08-15T11:19:17.505Z,4.10
2023-08-15T11:21:46.124Z,2.72
2023-08-15T11:24:15.868Z,2.83
2023-08-15T11:26:44.149Z,4.10
2023-08-15T11:29:14.062Z,2.97
2023-08-15T11:31:43.258Z,4.07
2023-08-15T11:34:13.308Z,3.72
2023-08-15T11:36:42.091Z,5.50
2023-08-15T11:39:15.205Z,4.43
2023-08-15T11:41:43.840Z,5.55
2023-08-15T11:44:12.290Z,5.68
2023-08-15T11:49:18.510Z,5.07
2023-08-15T11:51:47.605Z,7.10
2023-08-15T11:54:17.512Z,7.20
2023-08-15T11:56:50.337Z,4.93
2023-08-15T11:59:19.637Z,4.60
2023-08-15T12:01:49.671Z,3.75
2023-08-15T12:04:18.586Z,9.30
2023-08-15T12:06:46.969Z,6.95
2023-08-15T12:09:17.070Z,6.32
2023-08-15T12:11:45.308Z,6.35
2023-08-15T12:14:21.002Z,7.20
2023-08-15T12:16:49.690Z,6.20
2023-08-15T12:19:21.036Z,5.78
2023-08-15T12:21:51.741Z,6.53
2023-08-15T12:24:22.705Z,4.13
2023-08-15T12:26:51.323Z,5.00
2023-08-15T12:29:19.788Z,3.95
2023-08-15T12:32:08.003Z,5.22
2023-08-15T12:34:36.604Z,6.28
2023-08-15T12:37:05.154Z,4.68
2023-08-15T12:39:34.723Z,4.72
2023-08-15T12:42:04.140Z,3.80
2023-08-15T12:44:33.380Z,4.88
2023-08-15T12:47:01.610Z,7.75
2023-08-15T12:49:29.901Z,5.35
2023-08-15T12:51:58.156Z,5.45
2023-08-15T12:54:26.547Z,4.43
2023-08-15T12:56:56.318Z,3.85
2023-08-15T12:59:24.691Z,4.78
2023-08-15T13:01:53.174Z,4.43
2023-08-15T13:04:21.734Z,4.78
2023-08-15T13:06:50.047Z,3.40
2023-08-15T13:09:18.486Z,4.13
2023-08-15T13:11:47.010Z,3.35
2023-08-15T13:14:17.785Z,4.05
2023-08-15T13:16:47.402Z,4.95
2023-08-15T13:19:15.661Z,4.85
2023-08-15T13:21:43.938Z,3.78
2023-08-15T13:24:12.245Z,5.00
2023-08-15T13:26:40.476Z,5.03
2023-08-15T13:29:08.807Z,5.65
2023-08-15T13:31:38.548Z,5.40
2023-08-15T13:34:06.849Z,4.30
2023-08-15T13:36:35.128Z,4.60
2023-08-15T13:39:03.521Z,3.70
2023-08-15T13:41:32.237Z,4.47
2023-08-15T13:44:01.230Z,5.07
2023-08-15T13:46:29.800Z,5.47
2023-08-15T13:48:59.970Z,5.55
2023-08-15T13:51:29.103Z,4.20
2023-08-15T13:53:57.583Z,4.38
2023-08-15T13:56:28.261Z,8.32
2023-08-15T13:58:56.838Z,6.75
2023-08-15T14:01:25.162Z,6.45
2023-08-15T14:03:54.235Z,4.32
2023-08-15T14:06:23.769Z,5.05
2023-08-15T14:08:52.141Z,8.07
2023-08-15T14:11:20.429Z,7.07
2023-08-15T14:13:48.712Z,6.15
2023-08-15T14:16:17.019Z,5.93
2023-08-15T14:18:45.609Z,4.68
2023-08-15T14:21:15.959Z,6.85
2023-08-15T14:23:46.597Z,7.03
2023-08-15T14:26:14.841Z,7.63
2023-08-15T14:28:43.145Z,5.85
2023-08-15T14:31:11.410Z,6.45
2023-08-15T14:33:39.768Z,6.47
2023-08-15T14:36:08.197Z,6.68
2023-08-15T14:38:36.518Z,4.35
2023-08-15T14:41:06.406Z,5.00
2023-08-15T14:43:34.743Z,6.18
2023-08-15T14:46:03.158Z,4.55
2023-08-15T14:48:31.550Z,5.05
2023-08-15T14:50:59.743Z,5.90
2023-08-15T14:53:28.092Z,8.65
2023-08-15T14:55:57.927Z,6.57
2023-08-15T14:58:27.635Z,5.43
2023-08-15T15:00:55.939Z,5.50
2023-08-15T15:03:24.470Z,6.15
2023-08-15T15:05:52.750Z,5.45
2023-08-15T15:08:21.815Z,5.82
2023-08-15T15:10:53.315Z,5.95
2023-08-15T15:13:21.650Z,5.50
2023-08-15T15:15:54.336Z,5.50
2023-08-15T15:18:23.790Z,6.53
2023-08-15T15:20:52.092Z,4.45
2023-08-15T15:23:20.958Z,5.18
2023-08-15T15:25:50.174Z,5.10
2023-08-15T15:28:18.522Z,5.35
2023-08-15T15:30:47.971Z,4.22
2023-08-15T15:33:17.690Z,6.75
2023-08-15T15:35:46.528Z,4.43
2023-08-15T15:38:14.869Z,5.53
2023-08-15T15:40:43.124Z,5.25
2023-08-15T15:43:11.474Z,4.32
2023-08-15T15:45:40.250Z,5.53
2023-08-15T15:48:09.202Z,4.22
2023-08-15T15:50:38.770Z,3.20
2023-08-15T15:53:07.261Z,3.40
2023-08-15T15:55:35.576Z,4.18
2023-08-15T15:58:03.860Z,5.15
2023-08-15T16:00:32.310Z,3.65
2023-08-15T16:03:00.854Z,3.70
2023-08-15T16:05:29.206Z,4.35
2023-08-15T16:07:58.855Z,3.72
2023-08-15T16:10:27.209Z,5.50
2023-08-15T16:12:55.505Z,4.20
2023-08-15T16:15:23.850Z,4.00
2023-08-15T16:17:52.193Z,3.90
2023-08-15T16:20:20.592Z,3.45
2023-08-15T16:22:48.865Z,3.63
2023-08-15T16:25:18.585Z,5.05
2023-08-15T16:27:47.557Z,3.88
2023-08-15T16:30:18.558Z,3.85
2023-08-15T16:32:48.493Z,5.72
2023-08-15T16:35:16.838Z,4.65
2023-08-15T16:37:46.123Z,5.80
2023-08-15T16:40:23.180Z,7.15
2023-08-15T16:42:57.005Z,6.32
2023-08-15T16:45:25.243Z,5.47
2023-08-15T16:47:53.598Z,4.22
2023-08-15T16:50:22.020Z,6.55
2023-08-15T16:52:50.296Z,4.20
2023-08-15T16:55:18.788Z,3.47
2023-08-15T16:57:48.878Z,4.32
2023-08-15T17:00:18.763Z,3.00
2023-08-15T17:02:47.349Z,3.97
2023-08-15T17:05:15.677Z,4.40
2023-08-15T17:07:46.926Z,3.13
2023-08-15T17:10:15.660Z,3.72
2023-08-15T17:12:44.017Z,5.13
2023-08-15T17:15:13.802Z,6.60
2023-08-15T17:17:42.193Z,3.75
2023-08-15T17:20:11.084Z,3.60
2023-08-15T17:22:39.490Z,3.65
2023-08-15T17:25:08.862Z,2.72
2023-08-15T17:27:37.417Z,4.70
2023-08-15T17:30:06.515Z,3.35
2023-08-15T17:32:36.242Z,6.43
2023-08-15T17:35:04.634Z,2.97
2023-08-15T17:37:32.945Z,4.30
2023-08-15T17:40:01.180Z,5.28
2023-08-15T17:42:29.862Z,4.22
2023-08-15T17:44:58.079Z,3.13
2023-08-15T17:47:26.492Z,2.80
2023-08-15T17:49:56.140Z,2.92
2023-08-15T17:52:24.675Z,3.15
2023-08-15T17:54:53.327Z,2.50
2023-08-15T17:57:21.671Z,3.58
2023-08-15T17:59:49.987Z,3.80
2023-08-15T18:02:18.384Z,5.50
2023-08-15T18:04:46.849Z,2.53
2023-08-15T18:07:15.576Z,2.50
2023-08-15T18:09:43.822Z,2.53
2023-08-15T18:12:12.122Z,3.72
2023-08-15T18:14:42.008Z,2.13
2023-08-15T18:17:10.322Z,4.93
2023-08-15T18:19:39.688Z,2.20
2023-08-15T18:22:09.092Z,4.45
2023-08-15T18:24:39.696Z,2.90
2023-08-15T18:27:08.007Z,4.63
2023-08-15T18:29:36.359Z,3.45
2023-08-15T18:32:05.122Z,3.40
2023-08-15T18:34:33.541Z,4.43
2023-08-15T18:37:01.876Z,3.38
2023-08-15T18:39:30.176Z,2.70
2023-08-15T18:41:59.933Z,2.80
2023-08-15T18:44:28.337Z,3.20
2023-08-15T18:46:56.806Z,5.45
2023-08-15T18:49:25.198Z,5.55
2023-08-15T18:51:55.406Z,5.47
2023-08-15T18:54:23.694Z,5.10
2023-08-15T18:56:52.022Z,3.08
2023-08-15T18:59:24.142Z,5.03
2023-08-15T19:01:52.674Z,4.45
2023-08-15T19:04:21.051Z,3.42
2023-08-15T19:06:49.406Z,4.53
2023-08-15T19:09:17.742Z,4.57
2023-08-15T19:11:46.069Z,3.90
2023-08-15T19:14:14.300Z,5.30
2023-08-15T19:16:43.968Z,3.55
2023-08-15T19:19:13.221Z,5.65
2023-08-15T19:21:41.923Z,3.55
2023-08-15T19:24:10.278Z,5.75
2023-08-15T19:26:38.884Z,4.72
2023-08-15T19:29:07.274Z,7.22
2023-08-15T19:31:36.853Z,5.45
2023-08-15T19:34:09.739Z,4.32
2023-08-15T19:36:38.155Z,6.50
2023-08-15T19:39:06.633Z,9.68
2023-08-15T19:41:35.122Z,6.18
2023-08-15T19:44:04.417Z,2.78
2023-08-15T19:46:32.714Z,4.00
2023-08-15T19:49:01.099Z,4.80
2023-08-15T19:51:30.769Z,6.60
2023-08-15T19:53:59.000Z,3.92
2023-08-15T19:56:28.103Z,4.07
2023-08-15T19:58:56.521Z,6.32
2023-08-15T20:01:24.878Z,4.65
2023-08-15T20:03:53.257Z,6.45
2023-08-15T20:06:21.784Z,5.15
2023-08-15T20:08:51.515Z,4.07
2023-08-15T20:11:19.838Z,6.40
2023-08-15T20:13:48.084Z,7.47
2023-08-15T20:16:16.458Z,5.43
2023-08-15T20:18:44.780Z,3.22
2023-08-15T20:21:13.199Z,5.22
2023-08-15T20:23:41.549Z,3.38
2023-08-15T20:26:11.559Z,6.65
2023-08-15T20:28:39.769Z,6.88
2023-08-15T20:31:08.329Z,6.38
2023-08-15T20:33:36.645Z,4.25
2023-08-15T20:36:05.413Z,6.40
2023-08-15T20:38:34.347Z,10.30
2023-08-15T20:41:02.703Z,7.13
2023-08-15T20:43:32.162Z,6.40
2023-08-15T20:46:00.682Z,8.93
2023-08-15T20:48:29.034Z,7.70
2023-08-15T20:50:58.475Z,5.38
2023-08-15T20:53:26.826Z,4.15
2023-08-15T20:55:55.378Z,7.07
2023-08-15T20:58:23.809Z,3.85
2023-08-15T21:00:53.948Z,4.97
2023-08-15T21:03:23.455Z,3.45
2023-08-15T21:05:51.870Z,5.97
2023-08-15T21:08:20.079Z,5.00
2023-08-15T21:10:48.369Z,5.03
2023-08-15T21:13:16.626Z,7.95
2023-08-15T21:15:46.238Z,4.40
2023-08-15T21:18:15.765Z,3.28
2023-08-15T21:20:45.556Z,4.95
2023-08-15T21:23:13.775Z,4.15
2023-08-15T21:25:43.117Z,5.63
2023-08-15T21:28:11.357Z,5.18
2023-08-15T21:30:39.798Z,6.90
2023-08-15T21:33:08.292Z,4.40
2023-08-15T21:35:37.805Z,9.80
2023-08-15T21:38:06.346Z,8.05
2023-08-15T21:40:34.592Z,5.10
2023-08-15T21:43:05.962Z,5.07
2023-08-15T21:45:34.149Z,6.55
2023-08-15T21:48:02.524Z,9.05
2023-08-15T21:50:31.188Z,7.00
2023-08-15T21:53:01.165Z,4.85
2023-08-15T21:55:29.594Z,6.93
2023-08-15T21:57:57.942Z,7.25
2023-08-15T22:00:27.714Z,7.90
2023-08-15T22:02:58.119Z,5.28
2023-08-15T22:05:27.481Z,4.35
2023-08-15T22:07:55.974Z,7.82
2023-08-15T22:10:25.529Z,4.40
2023-08-15T22:12:53.833Z,4.53
2023-08-15T22:15:22.190Z,7.47
2023-08-15T22:18:00.978Z,5.57
2023-08-15T22:20:39.997Z,3.80
2023-08-15T22:23:08.325Z,9.70
2023-08-15T22:25:37.906Z,4.50
2023-08-15T22:28:06.565Z,8.07
2023-08-15T22:30:35.034Z,5.60
2023-08-15T22:33:03.362Z,6.78
2023-08-15T22:35:40.237Z,6.97
2023-08-15T22:38:08.896Z,7.22
2023-08-15T22:40:38.719Z,4.90
2023-08-15T22:43:07.733Z,3.90
2023-08-15T22:45:37.904Z,4.35
2023-08-15T22:48:06.565Z,6.45
2023-08-15T22:50:34.851Z,4.63
2023-08-15T22:53:03.137Z,4.97
2023-08-15T22:55:31.489Z,5.15
2023-08-15T22:58:02.358Z,4.25
2023-08-15T23:00:31.141Z,8.07
2023-08-15T23:02:59.606Z,4.80
2023-08-15T23:05:27.898Z,7.65
2023-08-15T23:07:56.159Z,6.75
2023-08-15T23:10:24.433Z,7.00
2023-08-15T23:12:52.730Z,7.60
2023-08-15T23:15:22.358Z,5.10
2023-08-15T23:17:50.921Z,4.63
2023-08-15T23:20:19.240Z,5.60
2023-08-15T23:22:47.603Z,5.78
2023-08-15T23:25:15.924Z,3.55
2023-08-15T23:27:44.550Z,4.13
2023-08-15T23:30:14.198Z,5.75
2023-08-15T23:32:43.840Z,7.55
2023-08-15T23:35:14.584Z,5.72
2023-08-15T23:37:44.591Z,3.88
2023-08-15T23:40:14.171Z,4.72
2023-08-15T23:42:43.387Z,8.80
2023-08-15T23:45:12.822Z,7.47
2023-08-15T23:47:41.953Z,6.50
2023-08-15T23:50:12.974Z,5.22
2023-08-15T23:52:41.448Z,7.70
2023-08-15T23:55:11.212Z,7.97
2023-08-15T23:57:39.600Z,9.07
